^^
Saratoga-Weather Station Historical Data
Daily Summary for August 6, 2021 Units:  English    Metric   Both
Daily Weekly Monthly Yearly Custom
  High: Low: Average:
Temperature: 54.3 °F 49.1 °F 51.4 °F
Dew Point: 51.3 °F 47.3 °F 49.1 °F
Humidity: 95% 82% 92%
Wind Speed: 10.1mph 0mph 2.5mph
Wind Gust: 14mph - -
Wind- - West
Pressure: 30.2 in 29.9 in -
Precipitation: 0.22 in    
Historical Graphs
 
 
Tabular Data for August 6, 2021
Time Temperature Dew Point Pressure Wind Wind Speed Wind Gust Humidity Rainfall Rate (Hourly) solar
00:04 51.1 °F 49.5 °F 29.9 in SSE 2.9 mph 3 mph 94% 0.01 in 0 W/m2
00:09 51.1 °F 49.5 °F 29.9 in West 2 mph 3 mph 94% 0.01 in 0 W/m2
00:14 51.1 °F 49.5 °F 29.9 in NNW 2 mph 4 mph 94% 0.01 in 0 W/m2
00:19 51.1 °F 49.1 °F 29.9 in NW 2 mph 3 mph 93% 0.01 in 0 W/m2
00:24 51.1 °F 49.1 °F 29.9 in NNW 2 mph 2 mph 93% 0.01 in 0 W/m2
00:29 50.9 °F 48.9 °F 29.9 in NW 2 mph 2 mph 93% 0.01 in 0 W/m2
00:34 50.7 °F 48.7 °F 29.9 in Calm   3 mph 93% 0.01 in 0 W/m2
00:39 50.7 °F 48.7 °F 29.9 in West 0.9 mph 4 mph 93% 0 in 0 W/m2
00:44 50.7 °F 48.7 °F 29.9 in South 0.9 mph 2 mph 93% 0 in 0 W/m2
00:49 50.7 °F 48.7 °F 29.9 in NNW 2.9 mph 3 mph 93% 0 in 0 W/m2
00:54 50.7 °F 48.7 °F 29.9 in WNW 4.9 mph 6 mph 93% 0 in 0 W/m2
00:59 50.7 °F 48.7 °F 29.9 in Calm   3 mph 93% 0 in 0 W/m2
01:04 50.7 °F 48.7 °F 29.9 in Calm   6 mph 93% 0 in 0 W/m2
01:09 50.7 °F 48.6 °F 29.9 in SW 2.9 mph 6 mph 92% 0 in 0 W/m2
01:14 50.5 °F 48.6 °F 29.9 in Calm   2 mph 93% 0 in 0 W/m2
01:19 50.4 °F 48.4 °F 29.9 in ENE 2 mph 3 mph 93% 0 in 0 W/m2
01:24 50.4 °F 48.2 °F 29.9 in NNW 0.9 mph 3 mph 92% 0 in 0 W/m2
01:29 50.2 °F 48.2 °F 29.9 in SSE 2 mph 3 mph 93% 0 in 0 W/m2
01:34 50 °F 48 °F 29.9 in Calm     93% 0 in 0 W/m2
01:39 49.8 °F 47.8 °F 29.9 in ESE 0.9 mph 3 mph 93% 0 in 0 W/m2
01:44 49.8 °F 47.8 °F 29.9 in SE 4 mph 7 mph 93% 0 in 0 W/m2
01:49 49.8 °F 47.8 °F 29.9 in NW 2 mph 2 mph 93% 0 in 0 W/m2
01:54 49.8 °F 47.8 °F 29.9 in ESE 0.9 mph 1 mph 93% 0 in 0 W/m2
01:59 49.6 °F 47.7 °F 29.9 in SE 2 mph 2 mph 93% 0 in 0 W/m2
02:04 49.6 °F 47.7 °F 29.9 in Calm   6 mph 93% 0 in 0 W/m2
02:09 49.6 °F 47.7 °F 29.9 in ENE 0.9 mph 2 mph 93% 0 in 0 W/m2
02:14 49.6 °F 47.7 °F 29.9 in SE 0.9 mph 6 mph 93% 0 in 0 W/m2
02:19 49.5 °F 47.5 °F 29.9 in WNW 0.9 mph 3 mph 93% 0 in 0 W/m2
02:24 49.5 °F 47.5 °F 29.9 in East 2 mph 3 mph 93% 0 in 0 W/m2
02:29 49.3 °F 47.3 °F 29.9 in Calm   4 mph 93% 0 in 0 W/m2
02:34 49.3 °F 47.3 °F 29.9 in ESE 6 mph 6 mph 93% 0 in 0 W/m2
02:39 49.3 °F 47.7 °F 29.9 in SW 2 mph 2 mph 94% 0 in 0 W/m2
02:44 49.1 °F 47.5 °F 29.9 in Calm   5 mph 94% 0 in 0 W/m2
02:49 49.1 °F 47.5 °F 29.9 in SW 0.9 mph 3 mph 94% 0 in 0 W/m2
02:54 49.1 °F 47.5 °F 29.9 in ENE 0.9 mph 5 mph 94% 0 in 0 W/m2
02:59 49.1 °F 47.5 °F 29.9 in Calm   2 mph 94% 0 in 0 W/m2
03:04 49.1 °F 47.5 °F 29.9 in East 0.9 mph 2 mph 94% 0 in 0 W/m2
03:09 49.1 °F 47.5 °F 29.9 in WNW 2.9 mph 4 mph 94% 0 in 0 W/m2
03:14 49.1 °F 47.5 °F 29.9 in NW 2 mph 2 mph 94% 0 in 0 W/m2
03:19 49.3 °F 47.7 °F 29.9 in SSW 4 mph 6 mph 94% 0 in 0 W/m2
03:24 49.3 °F 47.7 °F 29.9 in NNW 2.9 mph 5 mph 94% 0 in 0 W/m2
03:29 49.5 °F 47.8 °F 30 in Calm   3 mph 94% 0 in 0 W/m2
03:34 49.5 °F 47.8 °F 30 in North 2 mph 5 mph 94% 0 in 0 W/m2
03:39 49.5 °F 47.8 °F 30 in NNW 2 mph 2 mph 94% 0 in 0 W/m2
03:44 49.6 °F 48 °F 30 in WSW 2.9 mph 4 mph 94% 0 in 0 W/m2
03:49 49.6 °F 48 °F 30 in Calm     94% 0 in 0 W/m2
03:54 49.8 °F 48.2 °F 30 in SW 0.9 mph 6 mph 94% 0 in 0 W/m2
03:59 50 °F 48.4 °F 30 in NNW 0.9 mph 2 mph 94% 0 in 0 W/m2
04:04 50.2 °F 48.6 °F 30 in NE 0.9 mph 2 mph 94% 0 in 0 W/m2
04:09 50.2 °F 48.6 °F 30 in NNW 2 mph 3 mph 94% 0 in 0 W/m2
04:14 50.2 °F 48.2 °F 30 in Calm   9 mph 93% 0 in 0 W/m2
04:19 50.2 °F 48.2 °F 30 in Calm   2 mph 93% 0 in 0 W/m2
04:24 50.2 °F 48.2 °F 30 in SW 0.9 mph 9 mph 93% 0 in 0 W/m2
04:29 50.4 °F 48.4 °F 30 in ENE 0.9 mph 3 mph 93% 0 in 0 W/m2
04:34 50.4 °F 48.4 °F 30 in NW 2.9 mph 7 mph 93% 0 in 0 W/m2
04:39 50.4 °F 48.4 °F 30 in Calm     93% 0 in 0 W/m2
04:44 50.4 °F 48.4 °F 30 in NNW 2 mph 3 mph 93% 0 in 0 W/m2
04:49 50.4 °F 48.4 °F 30 in WSW 2.9 mph 3 mph 93% 0 in 0 W/m2
04:54 50.4 °F 48.4 °F 30 in WNW 0.9 mph 4 mph 93% 0 in 0 W/m2
04:59 50.4 °F 48.4 °F 30 in NW 0.9 mph 3 mph 93% 0 in 0 W/m2
05:04 50.4 °F 48.4 °F 30 in West 2 mph 5 mph 93% 0 in 0 W/m2
05:09 50.4 °F 48.4 °F 30 in NNW 0.9 mph 3 mph 93% 0 in 0 W/m2
05:14 50.4 °F 48.4 °F 30 in West 0.9 mph 5 mph 93% 0 in 0 W/m2
05:19 50.4 °F 48.4 °F 30 in North 2 mph 4 mph 93% 0 in 0 W/m2
05:24 50.4 °F 48.4 °F 30 in WNW 0.9 mph 4 mph 93% 0 in 0 W/m2
05:29 50.4 °F 48.4 °F 30 in WSW 4 mph 5 mph 93% 0 in 0 W/m2
05:34 50.2 °F 48 °F 30 in NNW 2 mph 3 mph 92% 0 in 0 W/m2
05:39 50.2 °F 48 °F 30 in Calm   3 mph 92% 0 in 0 W/m2
05:44 50.2 °F 48.2 °F 30 in NW 2.9 mph 3 mph 93% 0 in 0 W/m2
05:49 50.2 °F 48.2 °F 30 in Calm   3 mph 93% 0 in 0 W/m2
05:54 50.2 °F 48 °F 30 in Calm   4 mph 92% 0 in 0 W/m2
05:59 50.2 °F 48 °F 30 in WNW 0.9 mph 6 mph 92% 0 in 0 W/m2
06:04 50.2 °F 48 °F 30 in NE 2 mph 4 mph 92% 0 in 0 W/m2
06:09 50.2 °F 48 °F 30 in Calm   3 mph 92% 0 in 0 W/m2
06:14 50.2 °F 48 °F 30 in WNW 2 mph 4 mph 92% 0 in 0 W/m2
06:19 50.2 °F 48 °F 30 in WSW 2 mph 5 mph 92% 0 in 0 W/m2
06:24 50 °F 48 °F 30 in NW 0.9 mph 7 mph 93% 0 in 0 W/m2
06:29 50 °F 48 °F 30 in WNW 2.9 mph 3 mph 93% 0 in 0 W/m2
06:34 50 °F 48 °F 30 in WNW 0.9 mph 2 mph 93% 0 in 0 W/m2
06:39 50 °F 48 °F 30 in NNW 0.9 mph 2 mph 93% 0 in 0 W/m2
06:44 49.8 °F 47.8 °F 30 in Calm   4 mph 93% 0 in 0 W/m2
06:49 49.8 °F 47.8 °F 30 in ENE 2 mph 5 mph 93% 0 in 0 W/m2
06:54 49.8 °F 47.8 °F 30 in Calm   3 mph 93% 0.01 in 0 W/m2
06:59 49.8 °F 47.8 °F 30 in West 2 mph 8 mph 93% 0.01 in 0 W/m2
07:04 49.6 °F 47.7 °F 30 in SE 2 mph 2 mph 93% 0.01 in 0 W/m2
07:09 49.6 °F 47.7 °F 30 in Calm   7 mph 93% 0.01 in 0 W/m2
07:14 49.6 °F 47.7 °F 30 in West 0.9 mph 4 mph 93% 0.01 in 0 W/m2
07:19 49.6 °F 47.7 °F 30 in WNW 2 mph 5 mph 93% 0.01 in 0 W/m2
07:24 49.6 °F 47.7 °F 30 in West 2 mph 3 mph 93% 0.01 in 0 W/m2
07:29 49.6 °F 47.7 °F 30 in Calm   3 mph 93% 0.01 in 0 W/m2
07:34 49.6 °F 47.7 °F 30 in Calm   4 mph 93% 0.01 in 0 W/m2
07:39 49.6 °F 47.7 °F 30 in WSW 4.9 mph 5 mph 93% 0.01 in 0 W/m2
07:44 49.6 °F 47.7 °F 30 in NW 2 mph 5 mph 93% 0.01 in 0 W/m2
07:49 49.6 °F 47.7 °F 30 in NW 4 mph 6 mph 93% 0.01 in 5 W/m2
07:54 49.6 °F 47.7 °F 30 in West 2.9 mph 12 mph 93% 0 in 7 W/m2
07:59 49.6 °F 47.7 °F 30 in NW 4 mph 5 mph 93% 0 in 7 W/m2
08:04 49.6 °F 47.7 °F 30 in WNW 2.9 mph 12 mph 93% 0 in 12 W/m2
08:09 49.8 °F 47.7 °F 30 in WNW 2 mph 4 mph 92% 0 in 25 W/m2
08:14 49.8 °F 47.7 °F 30 in WNW 2 mph 8 mph 92% 0 in 21 W/m2
08:19 49.8 °F 47.8 °F 30 in NNW 2.9 mph 6 mph 93% 0 in 32 W/m2
08:24 49.8 °F 47.7 °F 30 in West 6 mph 10 mph 92% 0 in 30 W/m2
08:29 49.8 °F 47.8 °F 30 in WNW 2 mph 3 mph 93% 0 in 33 W/m2
08:34 49.8 °F 47.7 °F 30 in WNW 4.9 mph 8 mph 92% 0 in 33 W/m2
08:39 49.8 °F 47.7 °F 30 in WNW 0.9 mph 7 mph 92% 0 in 26 W/m2
08:44 49.8 °F 47.8 °F 30 in North 0.9 mph 10 mph 93% 0 in 56 W/m2
08:49 49.8 °F 47.8 °F 30 in NW 2 mph 10 mph 93% 0 in 56 W/m2
08:54 49.8 °F 47.8 °F 30 in WSW 0.9 mph 4 mph 93% 0 in 63 W/m2
08:59 50 °F 48 °F 30 in NW 2.9 mph 7 mph 93% 0 in 39 W/m2
09:04 50.2 °F 48 °F 30 in WSW 2 mph 12 mph 92% 0 in 84 W/m2
09:09 50.2 °F 48 °F 30 in NNW 6 mph 10 mph 92% 0 in 70 W/m2
09:14 50.4 °F 48.2 °F 30 in East 0.9 mph 8 mph 92% 0 in 91 W/m2
09:19 50.5 °F 48.4 °F 30 in WNW 0.9 mph 11 mph 92% 0 in 146 W/m2
09:24 50.7 °F 48.6 °F 30 in WNW 2 mph 7 mph 92% 0 in 149 W/m2
09:29 50.9 °F 48.7 °F 30 in NW 0.9 mph 11 mph 92% 0 in 153 W/m2
09:34 51.1 °F 48.6 °F 30 in SW 2.9 mph 4 mph 91% 0 in 113 W/m2
09:39 51.1 °F 48.6 °F 30 in WNW 4 mph 4 mph 91% 0 in 128 W/m2
09:44 51.1 °F 48.6 °F 30 in WNW 2 mph 6 mph 91% 0 in 158 W/m2
09:49 51.1 °F 48.6 °F 30 in NW 2.9 mph 5 mph 91% 0 in 105 W/m2
09:54 51.3 °F 48.7 °F 30 in West 0.9 mph 6 mph 91% 0 in 93 W/m2
09:59 51.3 °F 48.7 °F 30 in WNW 2.9 mph 4 mph 91% 0 in 79 W/m2
10:04 51.3 °F 48.7 °F 30 in West 0.9 mph 6 mph 91% 0 in 102 W/m2
10:09 51.3 °F 48.7 °F 30 in NW 2.9 mph 10 mph 91% 0 in 148 W/m2
10:14 51.4 °F 48.9 °F 30 in WSW 2 mph 2 mph 91% 0 in 128 W/m2
10:19 51.4 °F 48.9 °F 30 in NE 0.9 mph 3 mph 91% 0 in 81 W/m2
10:24 51.6 °F 48.7 °F 30 in NW 2 mph 6 mph 90% 0 in 83 W/m2
10:29 51.6 °F 48.7 °F 30 in South 4 mph 5 mph 90% 0 in 91 W/m2
10:34 51.8 °F 48.9 °F 30 in West 2.9 mph 4 mph 90% 0 in 118 W/m2
10:39 52 °F 49.1 °F 30 in ENE 2 mph 3 mph 90% 0 in 207 W/m2
10:44 52.2 °F 49.3 °F 30 in NW 4 mph 7 mph 90% 0 in 139 W/m2
10:50 52.3 °F 49.5 °F 30 in North 0.9 mph 10 mph 90% 0 in 446 W/m2
10:55 52.9 °F 50 °F 30.1 in WSW 4.9 mph 10 mph 90% 0 in 195 W/m2
11:00 53.1 °F 49.6 °F 30.1 in WNW 2 mph 6 mph 88% 0 in 74 W/m2
11:05 53.1 °F 49.6 °F 30.1 in West 2 mph 10 mph 88% 0 in 81 W/m2
11:10 53.1 °F 49.6 °F 30.1 in East 2.9 mph 3 mph 88% 0 in 142 W/m2
11:15 53.2 °F 49.8 °F 30.1 in Calm   5 mph 88% 0 in 186 W/m2
11:20 53.2 °F 49.8 °F 30.1 in NNW 2 mph 3 mph 88% 0 in 151 W/m2
11:25 53.4 °F 49.6 °F 30.1 in West 2.9 mph 8 mph 87% 0 in 183 W/m2
11:30 53.4 °F 49.6 °F 30.1 in WNW 4 mph 14 mph 87% 0 in 332 W/m2
11:35 53.8 °F 50 °F 30.1 in WNW 0.9 mph 8 mph 87% 0 in 186 W/m2
11:40 54 °F 49.8 °F 30.1 in WSW 2 mph 10 mph 86% 0 in 234 W/m2
11:45 54 °F 49.8 °F 30.1 in West 4 mph 6 mph 86% 0 in 255 W/m2
11:50 54.1 °F 50 °F 30.1 in SW 0.9 mph 12 mph 86% 0 in 246 W/m2
11:55 54.1 °F 49.8 °F 30.1 in SW 2 mph 7 mph 85% 0 in 155 W/m2
12:00 54.1 °F 49.8 °F 30.1 in NW 2 mph 12 mph 85% 0 in 162 W/m2
12:05 54.1 °F 50 °F 30.1 in WNW 2 mph 5 mph 86% 0 in 107 W/m2
12:10 54 °F 49.6 °F 30.1 in North 6 mph 11 mph 85% 0 in 81 W/m2
12:15 54 °F 49.6 °F 30.1 in SSW 2.9 mph 4 mph 85% 0 in 102 W/m2
12:20 53.8 °F 49.5 °F 30.1 in NE 2 mph 4 mph 85% 0 in 120 W/m2
12:25 54 °F 49.6 °F 30.1 in SSW 4 mph 4 mph 85% 0 in 202 W/m2
12:30 54.1 °F 49.8 °F 30.1 in West 6 mph 6 mph 85% 0 in 153 W/m2
12:35 54.1 °F 49.5 °F 30.1 in West 6 mph 9 mph 84% 0 in 149 W/m2
12:40 54.1 °F 49.5 °F 30.1 in West 6.9 mph 8 mph 84% 0 in 118 W/m2
12:45 54.3 °F 49.6 °F 30.1 in WNW 2.9 mph 9 mph 84% 0 in 81 W/m2
12:50 54.1 °F 49.1 °F 30.1 in WSW 8.1 mph 8 mph 83% 0 in 132 W/m2
12:55 54.1 °F 49.1 °F 30.1 in West 10.1 mph 13 mph 83% 0 in 105 W/m2
13:00 54.1 °F 48.7 °F 30.1 in NW 8.9 mph 11 mph 82% 0 in 120 W/m2
13:05 54.1 °F 48.7 °F 30.1 in WNW 6.9 mph 13 mph 82% 0 in 176 W/m2
13:10 54.1 °F 48.7 °F 30.1 in SW 4 mph 9 mph 82% 0 in 109 W/m2
13:15 54.1 °F 49.1 °F 30.1 in WSW 4.9 mph 12 mph 83% 0 in 114 W/m2
13:20 54.1 °F 49.5 °F 30.1 in West 6 mph 8 mph 84% 0 in 120 W/m2
13:25 53.8 °F 49.1 °F 30.1 in NNW 2 mph 10 mph 84% 0 in 113 W/m2
13:30 53.6 °F 49.3 °F 30.1 in WNW 2 mph 4 mph 85% 0 in 125 W/m2
13:35 53.4 °F 49.3 °F 30.1 in WNW 2 mph 10 mph 86% 0.01 in 100 W/m2
13:40 53.2 °F 49.5 °F 30.1 in West 4 mph 9 mph 87% 0.01 in 98 W/m2
13:45 53.1 °F 49.3 °F 30.1 in West 2 mph 4 mph 87% 0.01 in 79 W/m2
13:50 53.1 °F 49.6 °F 30.1 in Calm   9 mph 88% 0.02 in 98 W/m2
13:55 53.1 °F 49.6 °F 30.1 in West 2 mph 3 mph 88% 0.02 in 141 W/m2
14:00 53.1 °F 49.6 °F 30.1 in Calm   1 mph 88% 0.02 in 160 W/m2
14:05 53.2 °F 50 °F 30.1 in NW 2 mph 3 mph 89% 0.02 in 135 W/m2
14:10 53.4 °F 50.2 °F 30.1 in WSW 2.9 mph 5 mph 89% 0.02 in 116 W/m2
14:15 53.4 °F 50.2 °F 30.1 in Calm   2 mph 89% 0.02 in 155 W/m2
14:20 53.6 °F 50.4 °F 30.1 in Calm   4 mph 89% 0.02 in 167 W/m2
14:25 53.8 °F 50.5 °F 30.1 in Calm   2 mph 89% 0.02 in 153 W/m2
14:30 54 °F 50.7 °F 30.1 in NW 2 mph 6 mph 89% 0.02 in 185 W/m2
14:35 54.1 °F 50.7 °F 30.1 in South 0.9 mph 5 mph 88% 0.02 in 225 W/m2
14:40 54.1 °F 50.9 °F 30.1 in WNW 0.9 mph 6 mph 89% 0.02 in 232 W/m2
14:45 54.3 °F 50.9 °F 30.1 in NW 0.9 mph 7 mph 88% 0.02 in 149 W/m2
14:50 54.3 °F 50.9 °F 30.1 in NW 2 mph 7 mph 88% 0.01 in 139 W/m2
14:55 54.3 °F 50.9 °F 30.1 in West 2.9 mph 5 mph 88% 0.01 in 137 W/m2
15:00 54.1 °F 50.7 °F 30.1 in West 2.9 mph 10 mph 88% 0.02 in 97 W/m2
15:05 54 °F 50.2 °F 30.1 in West 2.9 mph 9 mph 87% 0.02 in 95 W/m2
15:10 53.4 °F 50 °F 30.1 in West 0.9 mph 10 mph 88% 0.02 in 183 W/m2
15:15 53.4 °F 50.5 °F 30.1 in East 2.9 mph 3 mph 90% 0.02 in 105 W/m2
15:20 53.4 °F 50.5 °F 30.1 in West 0.9 mph 8 mph 90% 0.03 in 76 W/m2
15:25 53.4 °F 50.9 °F 30.1 in WNW 2 mph 7 mph 91% 0.04 in 192 W/m2
15:30 53.8 °F 51.3 °F 30.1 in NW 2.9 mph 4 mph 91% 0.04 in 148 W/m2
15:35 53.8 °F 50.9 °F 30.1 in NNW 4 mph 7 mph 90% 0.04 in 169 W/m2
15:40 53.8 °F 50.9 °F 30.1 in NW 2 mph 7 mph 90% 0.04 in 130 W/m2
15:45 53.8 °F 50.9 °F 30.1 in WNW 6.9 mph 10 mph 90% 0.05 in 158 W/m2
15:50 53.8 °F 50.9 °F 30.1 in West 4 mph 8 mph 90% 0.05 in 100 W/m2
15:55 53.6 °F 50.7 °F 30.1 in WNW 2.9 mph 10 mph 90% 0.06 in 58 W/m2
16:01 53.4 °F 50.5 °F 30.1 in WNW 4.9 mph 8 mph 90% 0.05 in 135 W/m2
16:06 53.2 °F 50.7 °F 30.1 in WSW 6 mph 9 mph 91% 0.04 in 113 W/m2
16:11 53.2 °F 50.4 °F 30.1 in NW 4.9 mph 10 mph 90% 0.03 in 84 W/m2
16:16 53.1 °F 50.5 °F 30.1 in West 4 mph 6 mph 91% 0.03 in 60 W/m2
16:21 53.1 °F 50.5 °F 30.1 in WSW 2 mph 7 mph 91% 0.03 in 47 W/m2
16:26 52.9 °F 50.4 °F 30.1 in WNW 2.9 mph 7 mph 91% 0.02 in 105 W/m2
16:31 52.7 °F 50.4 °F 30.1 in WNW 2 mph 6 mph 92% 0.02 in 83 W/m2
16:36 52.7 °F 50.2 °F 30.1 in WNW 2.9 mph 9 mph 91% 0.02 in 100 W/m2
16:41 52.7 °F 50.2 °F 30.1 in WNW 4 mph 6 mph 91% 0.02 in 88 W/m2
16:46 52.5 °F 50 °F 30.1 in WNW 4.9 mph 10 mph 91% 0.02 in 98 W/m2
16:51 52.5 °F 50.2 °F 30.1 in South 0.9 mph 8 mph 92% 0.02 in 90 W/m2
16:56 52.5 °F 50 °F 30.1 in SSW 2 mph 7 mph 91% 0.02 in 86 W/m2
17:01 52.5 °F 50.2 °F 30.1 in WNW 0.9 mph 4 mph 92% 0.02 in 109 W/m2
17:06 52.5 °F 50.2 °F 30.1 in West 4 mph 8 mph 92% 0.02 in 95 W/m2
17:11 52.5 °F 50.2 °F 30.1 in West 2 mph 8 mph 92% 0.02 in 67 W/m2
17:16 52.5 °F 50.2 °F 30.1 in WNW 2.9 mph 5 mph 92% 0.02 in 69 W/m2
17:21 52.5 °F 50.2 °F 30.1 in West 4 mph 14 mph 92% 0.01 in 63 W/m2
17:26 52.5 °F 50.2 °F 30.1 in WSW 4 mph 8 mph 92% 0.01 in 67 W/m2
17:31 52.5 °F 50.2 °F 30.1 in WSW 2.9 mph 14 mph 92% 0.01 in 62 W/m2
17:36 52.5 °F 50.2 °F 30.1 in West 2.9 mph 6 mph 92% 0.01 in 54 W/m2
17:41 52.5 °F 50.2 °F 30.1 in WNW 2.9 mph 4 mph 92% 0.01 in 46 W/m2
17:46 52.5 °F 50.2 °F 30.1 in West 4 mph 7 mph 92% 0.01 in 47 W/m2
17:51 52.3 °F 50 °F 30.1 in West 0.9 mph 4 mph 92% 0.01 in 49 W/m2
17:56 52.3 °F 50 °F 30.1 in West 2 mph 6 mph 92% 0 in 44 W/m2
18:01 52.3 °F 50 °F 30.1 in West 2 mph 7 mph 92% 0 in 42 W/m2
18:06 52.3 °F 50 °F 30.1 in West 2.9 mph 8 mph 92% 0 in 37 W/m2
18:11 52.3 °F 50 °F 30.1 in WSW 2 mph 4 mph 92% 0 in 32 W/m2
18:16 52.3 °F 50 °F 30.1 in West 2.9 mph 4 mph 92% 0 in 33 W/m2
18:21 52.3 °F 50 °F 30.1 in West 2.9 mph 4 mph 92% 0 in 21 W/m2
18:26 52.2 °F 49.8 °F 30.1 in West 2.9 mph 6 mph 92% 0 in 18 W/m2
18:31 52.2 °F 49.8 °F 30.1 in NW 4.9 mph 11 mph 92% 0 in 16 W/m2
18:36 52.2 °F 49.8 °F 30.1 in WNW 2.9 mph 7 mph 92% 0 in 18 W/m2
18:41 52.2 °F 49.8 °F 30.1 in West 2 mph 8 mph 92% 0 in 14 W/m2
18:46 52.2 °F 49.8 °F 30.1 in West 2 mph 7 mph 92% 0 in 7 W/m2
18:51 52.2 °F 50.2 °F 30.2 in West 4 mph 7 mph 93% 0 in 5 W/m2
18:56 52.2 °F 50.2 °F 30.2 in WNW 6.9 mph 7 mph 93% 0 in 0 W/m2
19:01 52.2 °F 50.2 °F 30.2 in WSW 2.9 mph 4 mph 93% 0 in 0 W/m2
19:06 52.2 °F 50.2 °F 30.2 in WSW 2.9 mph 6 mph 93% 0 in 0 W/m2
19:11 52.2 °F 50.2 °F 30.2 in WSW 2.9 mph 3 mph 93% 0.01 in 0 W/m2
19:16 52 °F 50 °F 30.2 in SW 2.9 mph 4 mph 93% 0.01 in 0 W/m2
19:21 52 °F 50 °F 30.2 in WSW 4 mph 7 mph 93% 0.02 in 0 W/m2
19:26 51.8 °F 49.8 °F 30.2 in West 4 mph 5 mph 93% 0.02 in 0 W/m2
19:31 51.8 °F 49.8 °F 30.2 in WNW 2.9 mph 4 mph 93% 0.02 in 0 W/m2
19:36 51.8 °F 49.8 °F 30.2 in West 2.9 mph 4 mph 93% 0.02 in 0 W/m2
19:41 51.8 °F 49.8 °F 30.2 in West 6 mph 8 mph 93% 0.03 in 0 W/m2
19:46 51.8 °F 50.2 °F 30.2 in West 0.9 mph 3 mph 94% 0.03 in 0 W/m2
19:51 51.6 °F 50 °F 30.2 in WNW 2.9 mph 8 mph 94% 0.03 in 0 W/m2
19:56 51.6 °F 50 °F 30.2 in WNW 2 mph 3 mph 94% 0.03 in 0 W/m2
20:01 51.6 °F 50 °F 30.2 in West 2 mph 4 mph 94% 0.04 in 0 W/m2
20:06 51.6 °F 50 °F 30.2 in West 6 mph 8 mph 94% 0.04 in 0 W/m2
20:11 51.6 °F 50 °F 30.2 in WNW 2.9 mph 3 mph 94% 0.04 in 0 W/m2
20:16 51.6 °F 50 °F 30.2 in WNW 2 mph 8 mph 94% 0.06 in 0 W/m2
20:21 51.4 °F 49.8 °F 30.2 in West 0.9 mph 2 mph 94% 0.08 in 0 W/m2
20:26 51.4 °F 49.8 °F 30.2 in West 0.9 mph 3 mph 94% 0.09 in 0 W/m2
20:31 51.4 °F 49.8 °F 30.2 in WNW 2.9 mph 4 mph 94% 0.09 in 0 W/m2
20:36 51.4 °F 50 °F 30.2 in Calm     95% 0.09 in 0 W/m2
20:41 51.4 °F 50 °F 30.2 in West 4 mph 4 mph 95% 0.09 in 0 W/m2
20:46 51.4 °F 50 °F 30.2 in West 2 mph 3 mph 95% 0.09 in 0 W/m2
20:51 51.4 °F 50 °F 30.2 in West 2 mph 3 mph 95% 0.09 in 0 W/m2
20:56 51.3 °F 49.8 °F 30.2 in WSW 2 mph 4 mph 95% 0.09 in 0 W/m2
21:01 51.3 °F 49.8 °F 30.2 in West 4 mph 8 mph 95% 0.08 in 0 W/m2
21:06 51.4 °F 50 °F 30.2 in WSW 2 mph 6 mph 95% 0.08 in 0 W/m2
21:11 51.4 °F 50 °F 30.2 in West 2.9 mph 6 mph 95% 0.07 in 0 W/m2
21:16 51.4 °F 49.8 °F 30.2 in WNW 4 mph 8 mph 94% 0.05 in 0 W/m2
21:21 51.4 °F 49.8 °F 30.2 in West 2.9 mph 6 mph 94% 0.02 in 0 W/m2
21:26 51.6 °F 50 °F 30.2 in West 2 mph 4 mph 94% 0.01 in 0 W/m2
21:31 51.6 °F 50 °F 30.2 in West 2.9 mph 4 mph 94% 0.01 in 0 W/m2
21:36 51.4 °F 49.8 °F 30.2 in WSW 4.9 mph 5 mph 94% 0 in 0 W/m2
21:41 51.4 °F 49.8 °F 30.2 in WSW 4 mph 6 mph 94% 0 in 0 W/m2
21:46 51.4 °F 49.8 °F 30.2 in West 2.9 mph 5 mph 94% 0 in 0 W/m2
21:51 51.4 °F 49.8 °F 30.2 in WNW 0.9 mph 3 mph 94% 0 in 0 W/m2
21:56 51.3 °F 49.6 °F 30.2 in West 4 mph 6 mph 94% 0 in 0 W/m2
22:01 51.3 °F 49.6 °F 30.2 in WNW 4.9 mph 6 mph 94% 0 in 0 W/m2
22:06 51.4 °F 49.8 °F 30.2 in West 2 mph 7 mph 94% 0 in 0 W/m2
22:11 51.4 °F 49.8 °F 30.2 in WNW 2.9 mph 7 mph 94% 0 in 0 W/m2
22:16 51.4 °F 49.8 °F 30.2 in West 4 mph 6 mph 94% 0 in 0 W/m2
22:21 51.4 °F 49.8 °F 30.2 in West 4 mph 9 mph 94% 0 in 0 W/m2
22:26 51.6 °F 50 °F 30.2 in West 6 mph 9 mph 94% 0 in 0 W/m2
22:31 51.6 °F 50 °F 30.2 in West 2.9 mph 7 mph 94% 0 in 0 W/m2
22:36 51.6 °F 50 °F 30.2 in WSW 4 mph 7 mph 94% 0 in 0 W/m2
22:41 51.4 °F 49.8 °F 30.2 in West 6 mph 6 mph 94% 0 in 0 W/m2
22:46 51.4 °F 49.8 °F 30.2 in WNW 2.9 mph 7 mph 94% 0 in 0 W/m2
22:51 51.4 °F 49.8 °F 30.2 in West 4 mph 6 mph 94% 0 in 0 W/m2
22:56 51.4 °F 49.8 °F 30.2 in West 0.9 mph 6 mph 94% 0 in 0 W/m2
23:01 51.4 °F 49.8 °F 30.2 in West 6 mph 6 mph 94% 0 in 0 W/m2
23:06 51.4 °F 49.8 °F 30.2 in West 2 mph 8 mph 94% 0 in 0 W/m2
23:11 51.4 °F 49.8 °F 30.2 in WNW 2 mph 9 mph 94% 0 in 0 W/m2
23:16 51.4 °F 49.8 °F 30.2 in West 2.9 mph 7 mph 94% 0 in 0 W/m2
23:21 51.3 °F 49.3 °F 30.2 in West 2.9 mph 6 mph 93% 0 in 0 W/m2
23:26 51.3 °F 49.3 °F 30.2 in WSW 2.9 mph 10 mph 93% 0 in 0 W/m2
23:31 51.1 °F 49.1 °F 30.2 in West 4 mph 6 mph 93% 0 in 0 W/m2
23:36 51.1 °F 49.5 °F 30.2 in West 2 mph 10 mph 94% 0 in 0 W/m2
23:41 51.1 °F 49.5 °F 30.2 in West 6 mph 8 mph 94% 0 in 0 W/m2
23:46 51.3 °F 49.6 °F 30.2 in WSW 8.9 mph 9 mph 94% 0 in 0 W/m2
23:51 51.3 °F 49.3 °F 30.2 in West 2.9 mph 8 mph 93% 0 in 0 W/m2
23:56 51.3 °F 49.3 °F 30.2 in WNW 6.9 mph 8 mph 93% 0 in 0 W/m2
Juneau County Weather
Compliments of Weather Underground - 4 mb